^^
Saratoga-Weather Station Historical Data
Daily Summary for January 29, 2020 Units:  English    Metric   Both
Daily Weekly Monthly Yearly Custom
  High: Low: Average:
Temperature: 62.6 °F 50.5 °F 55.9 °F
Dew Point: 52 °F 45.7 °F 48.7 °F
Humidity: 89% 56% 78%
Wind Speed: 11mph 0mph 2.9mph
Wind Gust: 17mph - -
Wind- - West
Pressure: 29.8 in 29.7 in -
Precipitation: 0.02 in    
Historical Graphs
 
 
Tabular Data for January 29, 2020
Time Temperature Dew Point Pressure Wind Wind Speed Wind Gust Humidity Rainfall Rate (Hourly) solar
00:01 54.5 °F 47.8 °F 29.7 in WNW 2.9 mph 3 mph 78% 0 in 0 W/m2
00:06 54.5 °F 47.8 °F 29.7 in NNW 2 mph 2 mph 78% 0 in 0 W/m2
00:11 54.3 °F 47.7 °F 29.7 in WSW 2.9 mph 4 mph 78% 0 in 0 W/m2
00:16 54.1 °F 47.5 °F 29.7 in WNW 2.9 mph 6 mph 78% 0 in 0 W/m2
00:21 54.1 °F 47.8 °F 29.7 in North 4.9 mph 7 mph 79% 0 in 0 W/m2
00:26 54 °F 47.7 °F 29.7 in WNW 2 mph 3 mph 79% 0 in 0 W/m2
00:31 54 °F 47.7 °F 29.7 in West 6 mph 6 mph 79% 0 in 0 W/m2
00:36 53.8 °F 47.5 °F 29.7 in NW 2 mph 7 mph 79% 0 in 0 W/m2
00:41 53.8 °F 47.8 °F 29.7 in WNW 4 mph 8 mph 80% 0 in 0 W/m2
00:46 53.8 °F 47.8 °F 29.7 in NNW 4.9 mph 6 mph 80% 0 in 0 W/m2
00:51 53.8 °F 47.8 °F 29.7 in NW 4 mph 9 mph 80% 0 in 0 W/m2
00:56 53.8 °F 47.8 °F 29.7 in WNW 2.9 mph 10 mph 80% 0 in 0 W/m2
01:01 53.8 °F 47.8 °F 29.7 in NW 4 mph 6 mph 80% 0 in 0 W/m2
01:06 53.8 °F 47.8 °F 29.7 in NW 6 mph 7 mph 80% 0 in 0 W/m2
01:11 53.6 °F 47.8 °F 29.7 in WNW 4 mph 7 mph 81% 0 in 0 W/m2
01:16 53.4 °F 47.7 °F 29.7 in West 6.9 mph 7 mph 81% 0 in 0 W/m2
01:21 53.4 °F 47.7 °F 29.7 in WNW 4 mph 6 mph 81% 0 in 0 W/m2
01:26 53.2 °F 47.5 °F 29.7 in NW 4.9 mph 5 mph 81% 0 in 0 W/m2
01:32 53.1 °F 47.7 °F 29.7 in WSW 4 mph 7 mph 82% 0 in 0 W/m2
01:37 52.9 °F 47.5 °F 29.7 in WNW 6.9 mph 8 mph 82% 0 in 0 W/m2
01:42 52.7 °F 47.7 °F 29.7 in WNW 2.9 mph 6 mph 83% 0 in 0 W/m2
01:47 52.5 °F 47.5 °F 29.7 in West 6 mph 7 mph 83% 0 in 0 W/m2
01:52 52.5 °F 47.5 °F 29.7 in WSW 6.9 mph 10 mph 83% 0 in 0 W/m2
01:57 52.5 °F 47.5 °F 29.7 in West 6 mph 9 mph 83% 0 in 0 W/m2
02:02 52.5 °F 47.5 °F 29.7 in WNW 4 mph 10 mph 83% 0 in 0 W/m2
02:07 52.5 °F 47.8 °F 29.7 in West 2.9 mph 8 mph 84% 0 in 0 W/m2
02:12 52.3 °F 47.7 °F 29.7 in SW 4.9 mph 10 mph 84% 0 in 0 W/m2
02:17 52.3 °F 47.7 °F 29.7 in West 4 mph 7 mph 84% 0 in 0 W/m2
02:22 52.3 °F 47.7 °F 29.7 in NNE 2.9 mph 9 mph 84% 0 in 0 W/m2
02:27 52.2 °F 47.8 °F 29.7 in West 2.9 mph 5 mph 85% 0 in 0 W/m2
02:32 52.2 °F 47.8 °F 29.7 in NW 4.9 mph 9 mph 85% 0 in 0 W/m2
02:37 52 °F 47.7 °F 29.7 in WSW 0.9 mph 3 mph 85% 0 in 0 W/m2
02:42 51.8 °F 47.5 °F 29.7 in WSW 2.9 mph 8 mph 85% 0 in 0 W/m2
02:47 51.6 °F 47.5 °F 29.7 in SSW 0.9 mph 1 mph 86% 0 in 0 W/m2
02:52 51.4 °F 47.5 °F 29.7 in NNE 2 mph 5 mph 86% 0 in 0 W/m2
02:57 51.4 °F 47.5 °F 29.7 in WNW 2 mph 4 mph 86% 0 in 0 W/m2
03:02 51.4 °F 47.7 °F 29.7 in Calm   3 mph 87% 0 in 0 W/m2
03:07 51.4 °F 47.7 °F 29.7 in WNW 4 mph 7 mph 87% 0 in 0 W/m2
03:12 51.4 °F 47.7 °F 29.7 in WNW 6.9 mph 11 mph 87% 0 in 0 W/m2
03:17 51.4 °F 47.7 °F 29.7 in WNW 0.9 mph 4 mph 87% 0 in 0 W/m2
03:22 51.4 °F 48 °F 29.7 in WNW 2 mph 8 mph 88% 0 in 0 W/m2
03:27 51.6 °F 48.2 °F 29.7 in WSW 2 mph 7 mph 88% 0 in 0 W/m2
03:32 51.8 °F 48 °F 29.7 in NW 4 mph 7 mph 87% 0 in 0 W/m2
03:37 51.8 °F 48 °F 29.7 in NW 2 mph 6 mph 87% 0 in 0 W/m2
03:42 52 °F 48.2 °F 29.7 in NW 2.9 mph 3 mph 87% 0 in 0 W/m2
03:48 52 °F 48.2 °F 29.7 in WNW 6.9 mph 7 mph 87% 0 in 0 W/m2
03:53 52.2 °F 48.7 °F 29.7 in West 4 mph 9 mph 88% 0 in 0 W/m2
03:58 52.2 °F 48.4 °F 29.7 in NW 2.9 mph 9 mph 87% 0 in 0 W/m2
04:03 52.3 °F 48.6 °F 29.7 in WNW 2.9 mph 8 mph 87% 0 in 0 W/m2
04:08 52.3 °F 48.6 °F 29.7 in WNW 2.9 mph 6 mph 87% 0 in 0 W/m2
04:13 52.3 °F 48.6 °F 29.7 in WNW 6.9 mph 8 mph 87% 0 in 0 W/m2
04:18 52.3 °F 48.6 °F 29.7 in WNW 2.9 mph 7 mph 87% 0 in 0 W/m2
04:23 52.3 °F 48.6 °F 29.7 in West 6 mph 9 mph 87% 0 in 0 W/m2
04:28 52.3 °F 48.9 °F 29.7 in West 2 mph 5 mph 88% 0 in 0 W/m2
04:33 52.3 °F 48.9 °F 29.7 in West 4 mph 9 mph 88% 0 in 0 W/m2
04:38 52.3 °F 48.9 °F 29.7 in SSW 0.9 mph 8 mph 88% 0 in 0 W/m2
04:43 52.3 °F 48.9 °F 29.7 in WNW 2.9 mph 9 mph 88% 0 in 0 W/m2
04:48 52.3 °F 48.9 °F 29.7 in NW 2.9 mph 9 mph 88% 0 in 0 W/m2
04:53 52.3 °F 48.9 °F 29.7 in NNW 2.9 mph 9 mph 88% 0 in 0 W/m2
04:58 52.5 °F 49.1 °F 29.7 in West 6 mph 7 mph 88% 0 in 0 W/m2
05:03 52.5 °F 48.7 °F 29.7 in West 2.9 mph 9 mph 87% 0 in 0 W/m2
05:08 52.9 °F 49.1 °F 29.7 in WNW 6.9 mph 7 mph 87% 0 in 0 W/m2
05:13 52.9 °F 49.1 °F 29.7 in West 6 mph 7 mph 87% 0 in 0 W/m2
05:19 52.9 °F 49.1 °F 29.7 in WNW 4 mph 5 mph 87% 0 in 0 W/m2
05:24 52.9 °F 49.1 °F 29.7 in WNW 2 mph 7 mph 87% 0 in 0 W/m2
05:29 52.9 °F 49.1 °F 29.7 in WNW 6.9 mph 7 mph 87% 0 in 0 W/m2
05:34 52.9 °F 49.1 °F 29.7 in West 8.1 mph 13 mph 87% 0 in 0 W/m2
05:39 52.9 °F 48.7 °F 29.7 in WNW 4 mph 5 mph 86% 0 in 0 W/m2
05:44 52.7 °F 48.9 °F 29.7 in WNW 0.9 mph 15 mph 87% 0 in 0 W/m2
05:49 52.7 °F 48.9 °F 29.7 in Calm   2 mph 87% 0 in 0 W/m2
05:54 52.5 °F 48.7 °F 29.7 in WNW 0.9 mph 4 mph 87% 0 in 0 W/m2
05:59 52.5 °F 48.7 °F 29.7 in NNW 2 mph 4 mph 87% 0 in 0 W/m2
06:04 52.3 °F 48.6 °F 29.7 in NNW 2 mph 3 mph 87% 0 in 0 W/m2
06:09 52.3 °F 48.6 °F 29.7 in NNE 0.9 mph 2 mph 87% 0 in 0 W/m2
06:14 52.3 °F 48.6 °F 29.7 in WSW 0.9 mph 4 mph 87% 0 in 0 W/m2
06:19 52.2 °F 48.4 °F 29.7 in NW 0.9 mph 7 mph 87% 0 in 0 W/m2
06:24 52 °F 48.2 °F 29.7 in North 2.9 mph 8 mph 87% 0 in 0 W/m2
06:29 52 °F 48.2 °F 29.7 in WNW 4 mph 4 mph 87% 0 in 5 W/m2
06:34 51.6 °F 47.8 °F 29.7 in SW 4 mph 4 mph 87% 0 in 7 W/m2
06:39 51.6 °F 47.8 °F 29.7 in West 2 mph 4 mph 87% 0 in 9 W/m2
06:44 51.4 °F 48 °F 29.7 in West 2.9 mph 7 mph 88% 0 in 11 W/m2
06:49 51.3 °F 47.8 °F 29.7 in NW 2.9 mph 4 mph 88% 0 in 12 W/m2
06:54 51.3 °F 47.8 °F 29.7 in WSW 0.9 mph 5 mph 88% 0 in 14 W/m2
06:59 51.1 °F 47.7 °F 29.7 in SW 2.9 mph 6 mph 88% 0 in 16 W/m2
07:04 51.1 °F 47.7 °F 29.7 in Calm   3 mph 88% 0 in 16 W/m2
07:09 50.9 °F 47.5 °F 29.7 in Calm   1 mph 88% 0 in 19 W/m2
07:14 50.7 °F 47.3 °F 29.7 in SW 4 mph 4 mph 88% 0 in 25 W/m2
07:19 50.7 °F 47.7 °F 29.7 in Calm   1 mph 89% 0 in 25 W/m2
07:24 50.5 °F 47.5 °F 29.7 in NNE 2 mph 5 mph 89% 0 in 25 W/m2
07:29 50.5 °F 47.5 °F 29.7 in NNW 2 mph 2 mph 89% 0 in 28 W/m2
07:34 50.5 °F 47.5 °F 29.7 in North 4 mph 4 mph 89% 0 in 30 W/m2
07:39 50.5 °F 47.5 °F 29.7 in WNW 4 mph 6 mph 89% 0 in 54 W/m2
07:44 50.7 °F 47.7 °F 29.7 in WNW 2 mph 6 mph 89% 0 in 114 W/m2
07:49 51.1 °F 48 °F 29.7 in Calm   3 mph 89% 0 in 98 W/m2
07:54 51.3 °F 48.2 °F 29.7 in WNW 0.9 mph 4 mph 89% 0 in 188 W/m2
08:00 51.6 °F 48.2 °F 29.7 in WNW 2 mph 4 mph 88% 0 in 121 W/m2
08:05 52 °F 48.2 °F 29.7 in NW 2 mph 4 mph 87% 0 in 193 W/m2
08:10 52.2 °F 48 °F 29.7 in NW 2.9 mph 11 mph 86% 0 in 153 W/m2
08:15 52.3 °F 48.2 °F 29.7 in West 2.9 mph 8 mph 86% 0 in 185 W/m2
08:20 52.7 °F 48.4 °F 29.8 in WNW 6.9 mph 11 mph 85% 0 in 151 W/m2
08:25 52.9 °F 48.2 °F 29.7 in WNW 2.9 mph 9 mph 84% 0 in 257 W/m2
08:30 53.1 °F 48.4 °F 29.7 in WNW 2 mph 6 mph 84% 0 in 369 W/m2
08:35 53.2 °F 48.6 °F 29.7 in NNE 2.9 mph 8 mph 84% 0 in 348 W/m2
08:40 53.4 °F 48.4 °F 29.7 in NNW 2.9 mph 8 mph 83% 0 in 341 W/m2
08:45 53.8 °F 48.4 °F 29.7 in SW 2.9 mph 9 mph 82% 0 in 366 W/m2
08:50 53.8 °F 48.4 °F 29.7 in Calm   12 mph 82% 0 in 403 W/m2
08:55 54.1 °F 48.7 °F 29.7 in SW 2.9 mph 6 mph 82% 0 in 490 W/m2
09:00 54.1 °F 48 °F 29.8 in NW 11 mph 11 mph 80% 0 in 267 W/m2
09:05 54.1 °F 48 °F 29.8 in WNW 4.9 mph 7 mph 80% 0 in 171 W/m2
09:10 54 °F 48 °F 29.8 in NW 4.9 mph 6 mph 80% 0 in 206 W/m2
09:15 54.1 °F 48.4 °F 29.8 in West 2 mph 8 mph 81% 0 in 190 W/m2
09:20 54.1 °F 48.4 °F 29.8 in WNW 2.9 mph 7 mph 81% 0 in 179 W/m2
09:25 54.1 °F 48 °F 29.8 in WNW 6 mph 11 mph 80% 0 in 197 W/m2
09:30 54.1 °F 48.4 °F 29.8 in NNW 2.9 mph 4 mph 81% 0 in 181 W/m2
09:35 54.1 °F 48 °F 29.8 in SW 4 mph 6 mph 80% 0 in 207 W/m2
09:41 54.1 °F 48 °F 29.8 in West 2 mph 4 mph 80% 0 in 128 W/m2
09:46 54.1 °F 48 °F 29.8 in WNW 4 mph 5 mph 80% 0 in 220 W/m2
09:51 54.1 °F 48 °F 29.8 in WNW 2.9 mph 6 mph 80% 0 in 244 W/m2
09:56 54.1 °F 48 °F 29.8 in SW 4 mph 6 mph 80% 0 in 278 W/m2
10:01 54.3 °F 48.2 °F 29.8 in WNW 2 mph 4 mph 80% 0 in 283 W/m2
10:06 54.7 °F 48.4 °F 29.8 in WNW 2 mph 12 mph 79% 0 in 257 W/m2
10:11 54.9 °F 48.2 °F 29.8 in NW 0.9 mph 17 mph 78% 0 in 483 W/m2
10:16 55 °F 48 °F 29.8 in West 2.9 mph 11 mph 77% 0 in 330 W/m2
10:21 55.4 °F 48.7 °F 29.8 in WNW 4.9 mph 12 mph 78% 0 in 766 W/m2
10:26 55.8 °F 48.7 °F 29.8 in West 0.9 mph 4 mph 77% 0 in 350 W/m2
10:31 56.3 °F 49.1 °F 29.8 in SE 6 mph 6 mph 77% 0 in 881 W/m2
10:36 57 °F 49.1 °F 29.8 in WNW 2.9 mph 5 mph 75% 0 in 348 W/m2
10:41 56.5 °F 48.4 °F 29.8 in West 0.9 mph 10 mph 74% 0 in 682 W/m2
10:46 56.3 °F 48.6 °F 29.8 in North 4 mph 8 mph 75% 0 in 232 W/m2
10:51 56.1 °F 48.4 °F 29.8 in NE 2 mph 5 mph 75% 0 in 738 W/m2
10:56 56.3 °F 48.9 °F 29.8 in NW 2.9 mph 11 mph 76% 0 in 504 W/m2
11:01 56.5 °F 48.9 °F 29.8 in West 6.9 mph 14 mph 76% 0 in 246 W/m2
11:06 56.1 °F 48.7 °F 29.8 in SW 2.9 mph 9 mph 76% 0 in 383 W/m2
11:11 55.9 °F 48.9 °F 29.8 in WSW 2.9 mph 7 mph 77% 0 in 455 W/m2
11:16 56.3 °F 48.6 °F 29.8 in NNW 2 mph 12 mph 75% 0 in 364 W/m2
11:21 56.5 °F 48.9 °F 29.8 in SSW 2 mph 5 mph 76% 0 in 461 W/m2
11:26 56.8 °F 48.9 °F 29.8 in Calm   12 mph 75% 0 in 278 W/m2
11:31 56.8 °F 48.6 °F 29.8 in SSE 4.9 mph 5 mph 74% 0 in 403 W/m2
11:36 56.8 °F 48.9 °F 29.8 in West 6 mph 12 mph 75% 0 in 510 W/m2
11:41 57 °F 49.1 °F 29.8 in ENE 2 mph 4 mph 75% 0 in 420 W/m2
11:46 57 °F 48.4 °F 29.8 in East 6 mph 12 mph 73% 0 in 258 W/m2
11:51 56.7 °F 48.4 °F 29.8 in Calm   2 mph 74% 0 in 364 W/m2
11:57 56.8 °F 48.6 °F 29.8 in SSE 4.9 mph 12 mph 74% 0 in 563 W/m2
12:02 57 °F 48.7 °F 29.8 in North 2 mph 4 mph 74% 0 in 385 W/m2
12:07 57.4 °F 49.1 °F 29.8 in WNW 4 mph 9 mph 74% 0 in 128 W/m2
12:12 56.8 °F 48.6 °F 29.8 in North 2.9 mph 5 mph 74% 0 in 148 W/m2
12:17 56.5 °F 48.7 °F 29.8 in ENE 0.9 mph 8 mph 75% 0 in 107 W/m2
12:22 56.1 °F 48.7 °F 29.8 in West 4 mph 6 mph 76% 0 in 246 W/m2
12:27 55.9 °F 48.9 °F 29.8 in NW 2.9 mph 8 mph 77% 0 in 432 W/m2
12:32 56.7 °F 49.5 °F 29.8 in West 11 mph 11 mph 77% 0 in 271 W/m2
12:37 57 °F 49.5 °F 29.8 in WNW 2 mph 8 mph 76% 0 in 418 W/m2
12:42 57.4 °F 49.5 °F 29.8 in West 10.1 mph 10 mph 75% 0 in 374 W/m2
12:47 57.7 °F 49.8 °F 29.7 in WNW 2.9 mph 9 mph 75% 0 in 413 W/m2
12:52 58.1 °F 49.8 °F 29.7 in WNW 4 mph 7 mph 74% 0 in 318 W/m2
12:57 58.3 °F 50.4 °F 29.7 in SW 2.9 mph 6 mph 75% 0 in 243 W/m2
13:02 58.1 °F 50.5 °F 29.8 in NW 8.1 mph 8 mph 76% 0 in 443 W/m2
13:07 57.9 °F 50.4 °F 29.8 in NW 6 mph 6 mph 76% 0 in 439 W/m2
13:12 58.3 °F 50.4 °F 29.8 in SW 2.9 mph 8 mph 75% 0 in 274 W/m2
13:17 57.9 °F 50 °F 29.8 in North 2 mph 7 mph 75% 0 in 313 W/m2
13:22 57.6 °F 50.4 °F 29.8 in West 2.9 mph 9 mph 77% 0 in 522 W/m2
13:27 57.6 °F 51.1 °F 29.8 in WSW 2 mph 6 mph 79% 0 in 686 W/m2
13:33 57.7 °F 51.3 °F 29.8 in WNW 0.9 mph 2 mph 79% 0 in 394 W/m2
13:38 57.7 °F 51.3 °F 29.8 in WNW 8.9 mph 13 mph 79% 0 in 450 W/m2
13:43 57.7 °F 52 °F 29.8 in North 4 mph 5 mph 81% 0 in 937 W/m2
13:48 57.7 °F 51.3 °F 29.8 in WNW 0.9 mph 13 mph 79% 0 in 107 W/m2
13:53 57.7 °F 50.9 °F 29.7 in WNW 2 mph 7 mph 78% 0 in 842 W/m2
13:58 58.5 °F 50.9 °F 29.7 in West 6 mph 11 mph 76% 0 in 197 W/m2
14:03 58.6 °F 50.4 °F 29.7 in WNW 2.9 mph 13 mph 74% 0 in 178 W/m2
14:08 58.6 °F 50.7 °F 29.7 in WSW 2 mph 7 mph 75% 0 in 856 W/m2
14:13 59.4 °F 50.7 °F 29.7 in North 2 mph 13 mph 73% 0 in 856 W/m2
14:18 59.7 °F 50.7 °F 29.7 in West 2 mph 7 mph 72% 0 in 585 W/m2
14:23 60.1 °F 50.7 °F 29.7 in WSW 4 mph 7 mph 71% 0 in 272 W/m2
14:28 59.9 °F 49.3 °F 29.7 in WNW 2.9 mph 12 mph 68% 0 in 181 W/m2
14:33 59.4 °F 49.6 °F 29.7 in NW 4 mph 7 mph 70% 0 in 137 W/m2
14:38 58.8 °F 49.5 °F 29.7 in WNW 2 mph 12 mph 71% 0 in 160 W/m2
14:43 58.6 °F 51.1 °F 29.7 in SE 0.9 mph 2 mph 76% 0 in 199 W/m2
14:48 58.8 °F 51.6 °F 29.7 in WNW 6.9 mph 10 mph 77% 0 in 795 W/m2
14:53 59.2 °F 51.6 °F 29.7 in NW 4.9 mph 6 mph 76% 0 in 207 W/m2
14:58 59 °F 50.7 °F 29.7 in WNW 2 mph 9 mph 74% 0 in 185 W/m2
15:04 59 °F 50.7 °F 29.7 in WNW 4 mph 7 mph 74% 0 in 374 W/m2
15:09 59.5 °F 50.9 °F 29.7 in NW 4 mph 8 mph 73% 0 in 378 W/m2
15:14 60.1 °F 50.7 °F 29.7 in NW 2.9 mph 4 mph 71% 0 in 510 W/m2
15:19 60.6 °F 50.4 °F 29.7 in WSW 2 mph 8 mph 69% 0 in 253 W/m2
15:24 61.2 °F 49.6 °F 29.7 in WNW 4 mph 7 mph 66% 0 in 921 W/m2
15:29 61.2 °F 49.6 °F 29.7 in WSW 6 mph 9 mph 66% 0 in 216 W/m2
15:34 60.8 °F 49.8 °F 29.7 in West 2 mph 6 mph 67% 0 in 207 W/m2
15:39 60.3 °F 48.9 °F 29.7 in WSW 2 mph 9 mph 66% 0 in 243 W/m2
15:44 59.9 °F 49.3 °F 29.7 in WNW 6.9 mph 11 mph 68% 0 in 216 W/m2
15:49 59.5 °F 50.9 °F 29.7 in WSW 2.9 mph 4 mph 73% 0 in 831 W/m2
15:54 60.1 °F 51.4 °F 29.7 in West 2 mph 4 mph 73% 0 in 670 W/m2
15:59 60.3 °F 50.9 °F 29.7 in WSW 4.9 mph 8 mph 71% 0 in 642 W/m2
16:04 60.6 °F 50.7 °F 29.7 in Calm   8 mph 70% 0 in 141 W/m2
16:09 60.8 °F 51.3 °F 29.7 in WNW 0.9 mph 6 mph 71% 0 in 751 W/m2
16:14 61 °F 51.4 °F 29.7 in West 4 mph 8 mph 71% 0 in 204 W/m2
16:19 61 °F 51.1 °F 29.7 in West 6 mph 8 mph 70% 0 in 120 W/m2
16:24 60.4 °F 51.4 °F 29.7 in WNW 2 mph 6 mph 72% 0 in 225 W/m2
16:29 60.4 °F 51.8 °F 29.7 in NW 0.9 mph 8 mph 73% 0 in 251 W/m2
16:34 61 °F 50.7 °F 29.7 in WNW 2 mph 8 mph 69% 0 in 592 W/m2
16:39 61.3 °F 50.7 °F 29.7 in WNW 4 mph 4 mph 68% 0 in 267 W/m2
16:44 61.3 °F 49.5 °F 29.7 in North 2 mph 9 mph 65% 0 in 232 W/m2
16:49 61.3 °F 49.5 °F 29.7 in NW 2.9 mph 4 mph 65% 0 in 269 W/m2
16:54 62.1 °F 50.9 °F 29.7 in NE 2.9 mph 9 mph 67% 0 in 656 W/m2
16:59 62.6 °F 50.2 °F 29.7 in NW 4 mph 10 mph 64% 0 in 613 W/m2
17:04 62.2 °F 50.4 °F 29.7 in NNE 2 mph 6 mph 65% 0 in 139 W/m2
17:09 61.3 °F 49.8 °F 29.7 in Calm   10 mph 66% 0 in 156 W/m2
17:14 61 °F 50.4 °F 29.7 in Calm   4 mph 68% 0 in 225 W/m2
17:20 60.8 °F 50.2 °F 29.7 in West 0.9 mph 6 mph 68% 0 in 304 W/m2
17:25 61 °F 50 °F 29.7 in NW 4 mph 10 mph 67% 0 in 121 W/m2
17:30 61 °F 49.5 °F 29.7 in WNW 2.9 mph 6 mph 66% 0 in 93 W/m2
17:35 61.2 °F 49.6 °F 29.7 in WNW 2.9 mph 10 mph 66% 0 in 111 W/m2
17:40 61.3 °F 49.8 °F 29.7 in West 0.9 mph 4 mph 66% 0 in 120 W/m2
17:45 61.9 °F 50 °F 29.7 in NNW 0.9 mph 4 mph 65% 0 in 111 W/m2
17:50 62.2 °F 50 °F 29.7 in NNW 2 mph 4 mph 64% 0 in 522 W/m2
17:55 62.4 °F 49.6 °F 29.7 in NW 2 mph 6 mph 63% 0 in 401 W/m2
18:00 62.4 °F 50 °F 29.7 in NE 2 mph 2 mph 64% 0 in 86 W/m2
18:05 62.2 °F 50.4 °F 29.7 in WNW 2.9 mph 3 mph 65% 0 in 125 W/m2
18:10 62.1 °F 50.9 °F 29.7 in NW 2 mph 2 mph 67% 0 in 439 W/m2
18:15 62.2 °F 50.4 °F 29.7 in East 2 mph 2 mph 65% 0 in 107 W/m2
18:20 62.4 °F 49.3 °F 29.7 in SSW 4 mph 6 mph 62% 0 in 121 W/m2
18:25 62.4 °F 48.7 °F 29.7 in North 2.9 mph 3 mph 61% 0 in 125 W/m2
18:30 62.4 °F 48.4 °F 29.7 in West 4 mph 7 mph 60% 0 in 202 W/m2
18:35 62.2 °F 47.7 °F 29.7 in NW 4.9 mph 8 mph 59% 0 in 91 W/m2
18:40 62.2 °F 48.2 °F 29.7 in WNW 2 mph 3 mph 60% 0 in 83 W/m2
18:45 62.1 °F 47.5 °F 29.7 in NW 2 mph 7 mph 59% 0 in 127 W/m2
18:50 61.9 °F 46.9 °F 29.7 in West 6 mph 11 mph 58% 0 in 90 W/m2
18:55 61.7 °F 46.4 °F 29.7 in North 4.9 mph 5 mph 57% 0 in 77 W/m2
19:00 61.5 °F 45.7 °F 29.7 in WNW 2.9 mph 13 mph 56% 0 in 54 W/m2
19:05 61.3 °F 46 °F 29.7 in Calm   2 mph 57% 0 in 63 W/m2
19:10 61.3 °F 46 °F 29.7 in SSW 0.9 mph 8 mph 57% 0 in 91 W/m2
19:15 61.3 °F 46 °F 29.7 in West 2.9 mph 7 mph 57% 0 in 137 W/m2
19:20 61.3 °F 46 °F 29.7 in North 2.9 mph 7 mph 57% 0 in 104 W/m2
19:25 61.3 °F 46 °F 29.7 in WNW 0.9 mph 3 mph 57% 0 in 91 W/m2
19:30 61.3 °F 46 °F 29.7 in WSW 2.9 mph 3 mph 57% 0 in 46 W/m2
19:35 61.2 °F 46.2 °F 29.7 in West 4 mph 9 mph 58% 0 in 26 W/m2
19:40 61 °F 46.6 °F 29.7 in NW 2.9 mph 3 mph 59% 0 in 21 W/m2
19:45 60.8 °F 46.4 °F 29.7 in NNW 2 mph 9 mph 59% 0 in 21 W/m2
19:50 60.6 °F 46.2 °F 29.7 in WNW 0.9 mph 3 mph 59% 0 in 21 W/m2
19:55 60.6 °F 46.6 °F 29.7 in Calm   1 mph 60% 0 in 23 W/m2
20:00 60.4 °F 46.4 °F 29.7 in West 2.9 mph 4 mph 60% 0 in 26 W/m2
20:05 60.3 °F 46.8 °F 29.7 in NNE 2.9 mph 3 mph 61% 0 in 21 W/m2
20:10 60.3 °F 47.1 °F 29.7 in NNW 0.9 mph 2 mph 62% 0 in 16 W/m2
20:15 60.1 °F 48.2 °F 29.7 in NW 0.9 mph 2 mph 65% 0 in 14 W/m2
20:20 59.5 °F 48.2 °F 29.7 in Calm   1 mph 66% 0.01 in 12 W/m2
20:25 59.2 °F 49.5 °F 29.7 in Calm   2 mph 70% 0.01 in 12 W/m2
20:30 58.6 °F 48.6 °F 29.7 in Calm   3 mph 69% 0.01 in 7 W/m2
20:35 58.5 °F 49.1 °F 29.7 in Calm     71% 0.01 in 7 W/m2
20:40 57.9 °F 48.9 °F 29.7 in Calm   2 mph 72% 0.01 in 5 W/m2
20:45 57.7 °F 48.4 °F 29.7 in ENE 0.9 mph 2 mph 71% 0.01 in 0 W/m2
20:50 57.6 °F 48.6 °F 29.7 in NE 0.9 mph 2 mph 72% 0.01 in 0 W/m2
20:55 57.4 °F 49.1 °F 29.7 in WNW 0.9 mph 2 mph 74% 0.01 in 0 W/m2
21:00 57 °F 49.1 °F 29.7 in NE 0.9 mph 1 mph 75% 0.01 in 0 W/m2
21:05 56.7 °F 49.8 °F 29.7 in Calm     78% 0.01 in 0 W/m2
21:10 56.3 °F 49.8 °F 29.7 in NE 0.9 mph 2 mph 79% 0.01 in 0 W/m2
21:15 55.9 °F 49.8 °F 29.7 in Calm   1 mph 80% 0.01 in 0 W/m2
21:20 55.8 °F 50 °F 29.7 in NE 2 mph 2 mph 81% 0 in 0 W/m2
21:25 55.6 °F 50.2 °F 29.7 in Calm     82% 0 in 0 W/m2
21:30 55.2 °F 49.8 °F 29.7 in South 2 mph 4 mph 82% 0 in 0 W/m2
21:35 55 °F 49.6 °F 29.7 in SSW 2 mph 2 mph 82% 0 in 0 W/m2
21:40 55 °F 49.3 °F 29.7 in East 0.9 mph 4 mph 81% 0 in 0 W/m2
21:46 55.2 °F 49.5 °F 29.7 in Calm   2 mph 81% 0 in 0 W/m2
21:51 55.2 °F 49.1 °F 29.7 in NNE 2 mph 3 mph 80% 0 in 0 W/m2
21:56 55.6 °F 49.1 °F 29.7 in South 0.9 mph 7 mph 79% 0 in 0 W/m2
22:01 55.8 °F 49.3 °F 29.7 in Calm   6 mph 79% 0.01 in 0 W/m2
22:06 55.8 °F 49.6 °F 29.7 in NNW 6 mph 8 mph 80% 0.01 in 0 W/m2
22:11 55.8 °F 49.6 °F 29.7 in NW 0.9 mph 6 mph 80% 0.01 in 0 W/m2
22:16 55.8 °F 49.6 °F 29.7 in ENE 2 mph 3 mph 80% 0.01 in 0 W/m2
22:21 55.6 °F 49.5 °F 29.7 in NNW 2 mph 6 mph 80% 0.01 in 0 W/m2
22:26 55.4 °F 49.6 °F 29.7 in Calm   3 mph 81% 0.01 in 0 W/m2
22:31 55.2 °F 49.5 °F 29.7 in NW 2.9 mph 4 mph 81% 0.01 in 0 W/m2
22:36 55 °F 49.6 °F 29.7 in South 0.9 mph 8 mph 82% 0.01 in 0 W/m2
22:41 55 °F 50 °F 29.7 in NW 0.9 mph 4 mph 83% 0.01 in 0 W/m2
22:46 55 °F 50 °F 29.7 in NW 2 mph 5 mph 83% 0.01 in 0 W/m2
22:51 54.9 °F 49.8 °F 29.7 in WNW 2.9 mph 5 mph 83% 0.02 in 0 W/m2
22:56 54.9 °F 50.2 °F 29.7 in Calm   3 mph 84% 0.02 in 0 W/m2
23:01 54.7 °F 50 °F 29.7 in NW 0.9 mph 8 mph 84% 0.01 in 0 W/m2
23:06 54.7 °F 50 °F 29.7 in NW 0.9 mph 4 mph 84% 0.01 in 0 W/m2
23:11 54.7 °F 50 °F 29.7 in NW 4.9 mph 10 mph 84% 0.01 in 0 W/m2
23:16 54.7 °F 50 °F 29.7 in NNE 4 mph 5 mph 84% 0.01 in 0 W/m2
23:21 54.7 °F 50 °F 29.7 in NW 0.9 mph 10 mph 84% 0.01 in 0 W/m2
23:26 54.5 °F 49.5 °F 29.7 in NNW 0.9 mph 5 mph 83% 0.01 in 0 W/m2
23:31 54.5 °F 49.5 °F 29.7 in Calm   7 mph 83% 0.01 in 0 W/m2
23:36 54.5 °F 49.8 °F 29.7 in Calm   3 mph 84% 0.01 in 0 W/m2
Juneau County Weather
Compliments of Weather Underground - 2 mb